FW7036 Weather Reports


time (UTC)temp
F
wind
direction
speed
knots
gust
knots
rain 1hr
in
rain 24hr
in
rain mn
in
humidity
%
barometer
mb
20260504201558 64 144 8.7 16.5 0.00 0.00 0.00 45 1015.5
20260504200055 65 81 6.1 14.8 0.00 0.00 0.00 44 1015.8
20260504194602 65 119 4.3 15.6 0.00 0.00 0.00 42 1015.9
20260504193054 67 161 2.6 9.6 0.00 0.00 0.00 42 1015.9
20260504191554 66 143 3.5 11.3 0.00 0.00 0.00 42 1016.1
20260504190128 66 87 1.7 8.7 0.00 0.00 0.00 41 1016.2
20260504184556 66 258 3.5 11.3 0.00 0.00 0.00 39 1016.4
20260504183100 66 156 3.5 13.9 0.00 0.00 0.00 40 1016.5
20260504181557 66 236 2.6 14.8 0.00 0.00 0.00 41 1016.5
20260504180058 66 143 2.6 10.4 0.00 0.00 0.00 43 1016.9
20260504174600 65 65 0.9 10.4 0.00 0.00 0.00 45 1016.7
20260504173057 63 113 2.6 13.0 0.00 0.00 0.00 45 1016.8
20260504171553 64 49 2.6 9.6 0.00 0.00 0.00 43 1016.9
20260504160107 60 109 2.6 8.7 0.00 0.00 0.00 47 1017.7
20260504081601 44 308 2.6 8.7 0.00 0.00 0.00 63 1016.3
20260504060115 45 293 1.7 3.5 0.00 0.00 0.00 60 1016.5
20260504050114 44 237 2.6 3.5 0.00 0.00 0.00 60 1017.1
20260504044556 44 237 1.7 2.6 0.00 0.00 0.00 59 1017.1
20260504043108 44 237 1.7 2.6 0.00 0.00 0.00 58 1016.9
20260504041556 45 237 1.7 4.3 0.00 0.00 0.00 56 1016.9
20260504040109 46 234 0.9 2.6 0.00 0.00 0.00 56 1017.0
20260504034600 46 229 1.7 4.3 0.00 0.00 0.00 56 1016.7
20260504033103 45 16 1.7 3.5 0.00 0.00 0.00 57 1016.7
20260504031604 45 24 0.9 3.5 0.00 0.00 0.00 55 1017.0
20260504024557 46 12 1.7 3.5 0.00 0.00 0.00 52 1017.1
20260504023059 46 65 0.0 3.5 0.00 0.00 0.00 51 1017.3
20260504021609 46 263 1.7 6.1 0.00 0.00 0.00 50 1017.2
20260504020055 46 190 0.9 3.5 0.00 0.00 0.00 49 1017.0
20260504014602 47 188 1.7 3.5 0.00 0.00 0.00 47 1016.9
20260504013111 47 188 0.9 3.5 0.00 0.00 0.00 46 1016.5
20260504011558 48 184 1.7 4.3 0.00 0.00 0.00 43 1016.4
20260504010116 49 302 0.9 3.5 0.00 0.00 0.00 42 1016.3
20260504004556 50 279 1.7 5.2 0.00 0.00 0.00 39 1016.2
20260504003055 50 271 2.6 7.0 0.00 0.00 0.00 39 1016.2
20260504001602 51 264 1.7 5.2 0.00 0.00 0.00 38 1016.0
20260504000059 52 266 1.7 7.0 0.00 0.00 0.00 39 1015.8
20260503234556 53 298 2.6 9.6 0.00 0.00 0.00 35 1015.9
20260503233102 53 305 4.3 8.7 0.00 0.00 0.00 34 1015.8
20260503231556 54 296 5.2 11.3 0.00 0.00 0.00 34 1015.8
20260503230058 55 28 2.6 7.0 0.00 0.00 0.00 35 1015.7
20260503224556 55 343 4.3 10.4 0.00 0.00 0.00 37 1015.7
20260503223058 55 289 5.2 10.4 0.00 0.00 0.00 37 1015.8
20260503221605 56 27 1.7 13.0 0.00 0.00 0.00 37 1016.0
20260503220105 56 330 4.3 14.8 0.00 0.00 0.00 35 1015.8
20260503214558 56 288 1.7 11.3 0.00 0.00 0.00 37 1016.0
20260503213056 56 303 7.0 13.9 0.00 0.00 0.00 36 1015.9
20260503211559 55 350 4.3 13.9 0.00 0.00 0.00 36 1016.2
20260503210100 56 340 6.1 11.3 0.00 0.00 0.00 34 1016.2
20260503204606 55 296 6.1 13.9 0.00 0.00 0.00 33 1016.4
20260503203105 55 19 7.0 13.9 0.00 0.00 0.00 31 1016.6